createdAt,value
2022-11-10T00:00:00.436Z,1.1
2022-11-10T00:05:00.434Z,1.1
2022-11-10T00:10:00.456Z,1.1
2022-11-10T00:15:00.453Z,1.1
2022-11-10T00:20:00.410Z,1.1
2022-11-10T00:25:00.276Z,1.1
2022-11-10T00:30:00.134Z,1.1
2022-11-10T00:35:00.126Z,1.1
2022-11-10T00:40:00.131Z,1.1
2022-11-10T00:45:00.135Z,1.1
2022-11-10T00:50:00.131Z,1.1
2022-11-10T00:55:00.145Z,1.1
2022-11-10T01:00:00.207Z,1.1
2022-11-10T01:05:00.158Z,1.1
2022-11-10T01:10:00.141Z,1.1
2022-11-10T01:15:00.162Z,1.1
2022-11-10T01:20:00.169Z,1.1
2022-11-10T01:25:00.159Z,1.1
2022-11-10T01:30:00.175Z,1.1
2022-11-10T01:35:00.181Z,1.1
2022-11-10T01:40:00.354Z,1.1
2022-11-10T01:45:00.169Z,1.1
2022-11-10T01:50:00.177Z,1.1
2022-11-10T01:55:00.197Z,1.1
2022-11-10T02:00:00.190Z,1.1
2022-11-10T02:05:00.196Z,1.1
2022-11-10T02:10:00.195Z,1.1
2022-11-10T02:15:00.210Z,1.1
2022-11-10T02:20:00.207Z,1.1
2022-11-10T02:25:00.224Z,1.1
2022-11-10T02:30:00.217Z,1.1
2022-11-10T02:35:00.222Z,1.1
2022-11-10T02:40:00.223Z,1.1
2022-11-10T02:45:00.231Z,1.1
2022-11-10T02:50:00.243Z,1.1
2022-11-10T02:55:00.249Z,1.1
2022-11-10T03:00:00.253Z,1.1
2022-11-10T03:05:00.542Z,1.1
2022-11-10T03:10:00.547Z,1.1
2022-11-10T03:15:00.557Z,1.1
2022-11-10T03:20:00.554Z,1.1
2022-11-10T03:25:00.560Z,1.1
2022-11-10T03:30:00.574Z,1.1
2022-11-10T03:35:00.569Z,1.1
2022-11-10T03:40:00.576Z,1.1
2022-11-10T03:45:00.580Z,1.1
2022-11-10T03:50:00.586Z,1.1
2022-11-10T03:55:03.072Z,1.1
2022-11-10T04:00:00.603Z,1.1
2022-11-10T04:05:00.601Z,1.1
2022-11-10T04:10:00.609Z,1.1
2022-11-10T04:15:00.609Z,1.1
2022-11-10T04:20:00.740Z,1.1
2022-11-10T04:25:00.699Z,1.1
2022-11-10T04:30:00.843Z,1.1
2022-11-10T04:35:00.758Z,1.1
2022-11-10T04:40:00.733Z,1.1
2022-11-10T04:45:00.712Z,1.1
2022-11-10T04:50:00.647Z,1.1
2022-11-10T04:55:00.660Z,1.1
2022-11-10T05:00:00.660Z,1.1
2022-11-10T05:05:00.794Z,1.1
2022-11-10T05:10:00.833Z,1.1
2022-11-10T05:15:00.674Z,1.1
2022-11-10T05:20:00.674Z,1.1
2022-11-10T05:25:00.689Z,1.1
2022-11-10T05:30:00.693Z,1.1
2022-11-10T05:35:00.694Z,1.1
2022-11-10T05:40:00.702Z,1.1
2022-11-10T05:45:00.687Z,1.1
2022-11-10T05:50:00.711Z,1.1
2022-11-10T05:55:00.709Z,1.1
2022-11-10T06:00:00.721Z,2.1
2022-11-10T06:05:00.729Z,5.4
2022-11-10T06:10:00.726Z,12.9
2022-11-10T06:15:00.861Z,27.8
2022-11-10T06:20:00.747Z,53
2022-11-10T06:25:00.241Z,90.8
2022-11-10T06:30:00.324Z,144.7
2022-11-10T06:35:00.825Z,217.3
2022-11-10T06:40:00.168Z,286.1
2022-11-10T06:45:00.178Z,354.9
2022-11-10T06:50:00.174Z,424.6
2022-11-10T06:55:00.192Z,467.2
2022-11-10T07:00:00.187Z,552.4
2022-11-10T07:05:00.196Z,520.3
2022-11-10T07:10:05.595Z,552.4
2022-11-10T07:15:00.205Z,532.9
2022-11-10T07:20:00.215Z,579.4
2022-11-10T07:25:00.217Z,718.6
2022-11-10T07:30:00.221Z,727.2
2022-11-10T07:35:00.229Z,645.3
2022-11-10T07:40:00.232Z,829.5
2022-11-10T07:45:00.243Z,1028.7
2022-11-10T07:50:00.253Z,969
2022-11-10T07:55:00.257Z,1004.4
2022-11-10T08:00:00.248Z,1306.7
2022-11-10T08:05:00.252Z,1159.4
2022-11-10T08:10:00.279Z,1260.7
2022-11-10T08:15:00.283Z,1563.4
2022-11-10T08:20:00.505Z,1354.4
2022-11-10T08:25:00.385Z,1544.8
2022-11-10T08:30:00.345Z,1216.2
2022-11-10T08:35:00.422Z,1915.9
2022-11-10T08:40:00.289Z,1783.3
2022-11-10T08:45:00.305Z,1804.7
2022-11-10T08:50:00.307Z,1848.4
2022-11-10T08:55:00.313Z,2108.2
2022-11-10T09:00:00.314Z,2058.4
2022-11-10T09:05:00.909Z,2404.6
2022-11-10T09:10:07.072Z,2877.1
2022-11-10T09:15:00.737Z,3128.2
2022-11-10T09:20:00.947Z,3091.1
2022-11-10T09:25:00.835Z,2946.7
2022-11-10T09:30:00.926Z,2552.8
2022-11-10T09:35:00.344Z,2265.1
2022-11-10T09:40:01.597Z,2292.3
2022-11-10T09:45:00.355Z,2462.8
2022-11-10T09:50:00.898Z,2159.2
2022-11-10T09:55:00.366Z,2404.6
2022-11-10T10:00:00.375Z,1699.9
2022-11-10T10:05:00.375Z,1526.4
2022-11-10T10:10:00.382Z,1306.7
2022-11-10T10:15:00.411Z,1544.8
2022-11-10T10:20:00.419Z,2404.6
2022-11-10T10:25:00.398Z,2462.8
2022-11-10T10:30:00.425Z,1962.2
2022-11-10T10:35:00.412Z,1620.5
2022-11-10T10:40:00.421Z,2083.2
2022-11-10T10:45:00.545Z,2265.1
2022-11-10T10:50:01.179Z,1893.1
2022-11-10T10:55:00.433Z,2433.5
2022-11-10T11:00:00.430Z,2433.5
2022-11-10T11:05:00.430Z,2583.5
2022-11-10T11:10:00.472Z,3611.1
2022-11-10T11:15:00.466Z,4320.5
2022-11-10T11:20:00.534Z,3926.3
2022-11-10T11:25:00.462Z,3361
2022-11-10T11:30:00.461Z,3401.4
2022-11-10T11:35:00.463Z,2710.1
2022-11-10T11:40:00.464Z,1159.4
2022-11-10T11:45:00.483Z,980.7
2022-11-10T11:50:00.492Z,1132
2022-11-10T11:55:00.494Z,1041.1
2022-11-10T12:00:00.487Z,2614.6
2022-11-10T12:05:00.927Z,2742.6
2022-11-10T12:10:00.974Z,3242.6
2022-11-10T12:15:00.500Z,2133.6
2022-11-10T12:20:00.483Z,1370.7
2022-11-10T12:25:00.497Z,1387.2
2022-11-10T12:30:00.245Z,1387.2
2022-11-10T12:35:00.116Z,2058.4
2022-11-10T12:40:00.110Z,2552.8
2022-11-10T12:45:00.115Z,2646
2022-11-10T12:50:00.129Z,2877.1
2022-11-10T12:55:00.111Z,2492.4
2022-11-10T13:00:00.129Z,2238.1
2022-11-10T13:05:00.129Z,2347.8
2022-11-10T13:10:00.145Z,2809
2022-11-10T13:15:00.141Z,3091.1
2022-11-10T13:20:09.513Z,2159.2
2022-11-10T13:25:00.235Z,2108.2
2022-11-10T13:30:00.167Z,1938.9
2022-11-10T13:35:00.157Z,2034
2022-11-10T13:40:00.156Z,1962.2
2022-11-10T13:45:00.170Z,1870.6
2022-11-10T13:50:00.167Z,1870.6
2022-11-10T13:55:00.185Z,1848.4
2022-11-10T14:00:00.188Z,1893.1
2022-11-10T14:05:00.186Z,1870.6
2022-11-10T14:10:00.205Z,1741
2022-11-10T14:15:00.216Z,1526.4
2022-11-10T14:20:00.231Z,1437.9
2022-11-10T14:25:00.460Z,1306.7
2022-11-10T14:30:00.837Z,1132
2022-11-10T14:35:00.219Z,980.7
2022-11-10T14:40:00.229Z,901.9
2022-11-10T14:45:00.244Z,829.5
2022-11-10T14:50:00.235Z,800.3
2022-11-10T14:55:00.245Z,781.4
2022-11-10T15:00:00.240Z,727.2
2022-11-10T15:05:00.252Z,668.8
2022-11-10T15:10:00.253Z,622.5
2022-11-10T15:15:00.256Z,593.4
2022-11-10T15:20:00.869Z,559
2022-11-10T15:25:00.365Z,472.9
2022-11-10T15:30:00.359Z,414.5
2022-11-10T15:35:00.371Z,359.1
2022-11-10T15:40:00.380Z,293.1
2022-11-10T15:45:00.433Z,228
2022-11-10T15:50:00.900Z,165.1
2022-11-10T15:55:00.397Z,113.9
2022-11-10T16:00:00.399Z,70.6
2022-11-10T16:05:00.456Z,38.8
2022-11-10T16:10:00.912Z,19.4
2022-11-10T16:15:00.414Z,8.6
2022-11-10T16:20:00.415Z,3.4
2022-11-10T16:25:00.426Z,1.3
2022-11-10T16:30:00.433Z,1.1
2022-11-10T16:35:00.430Z,1.1
2022-11-10T16:40:00.564Z,1.1
2022-11-10T16:45:00.456Z,1.1
2022-11-10T16:50:00.539Z,1.1
2022-11-10T16:55:00.452Z,1.1
2022-11-10T17:00:00.633Z,1.1
2022-11-10T17:05:00.944Z,1.1
2022-11-10T17:10:00.462Z,1.1
2022-11-10T17:15:00.478Z,1.1
2022-11-10T17:20:00.574Z,1.1
2022-11-10T17:25:00.571Z,1.1
2022-11-10T17:30:00.638Z,1.1
2022-11-10T17:35:00.643Z,1.1
2022-11-10T17:40:00.683Z,1.1
2022-11-10T17:45:00.740Z,1.1
2022-11-10T17:50:00.542Z,1.1
2022-11-10T17:55:00.636Z,1.1
2022-11-10T18:00:00.588Z,1.1
2022-11-10T18:05:00.527Z,1.1
2022-11-10T18:10:00.603Z,1.1
2022-11-10T18:15:00.626Z,1.1
2022-11-10T18:20:00.596Z,1.1
2022-11-10T18:25:00.479Z,1.1
2022-11-10T18:30:00.284Z,1.1
2022-11-10T18:35:00.263Z,1.1
2022-11-10T18:40:00.233Z,1.1
2022-11-10T18:45:00.224Z,1.1
2022-11-10T18:50:00.220Z,1.1
2022-11-10T18:55:00.245Z,1.1
2022-11-10T19:00:00.236Z,1.1
2022-11-10T19:05:00.239Z,1.1
2022-11-10T19:10:00.276Z,1.1
2022-11-10T19:15:00.249Z,1.1
2022-11-10T19:20:00.260Z,1.1
2022-11-10T19:25:08.141Z,1.1
2022-11-10T19:30:00.424Z,1.1
2022-11-10T19:35:00.161Z,1.1
2022-11-10T19:40:00.165Z,1.1
2022-11-10T19:45:00.180Z,1.1
2022-11-10T19:50:00.178Z,1.1
2022-11-10T19:55:00.184Z,1.1
2022-11-10T20:00:00.198Z,1.1
2022-11-10T20:05:00.189Z,1.1
2022-11-10T20:10:00.205Z,1.1
2022-11-10T20:15:00.233Z,1.1
2022-11-10T20:20:00.216Z,1.1
2022-11-10T20:25:00.230Z,1.1
2022-11-10T20:30:00.217Z,1.1
2022-11-10T20:35:00.268Z,1.1
2022-11-10T20:40:00.230Z,1.1
2022-11-10T20:45:00.235Z,1.1
2022-11-10T20:50:00.238Z,1.1
2022-11-10T20:55:00.235Z,1.1
2022-11-10T21:00:00.246Z,1.1
2022-11-10T21:05:00.247Z,1.1
2022-11-10T21:10:00.254Z,1.1
2022-11-10T21:15:00.265Z,1.1
2022-11-10T21:20:00.267Z,1.1
2022-11-10T21:25:00.268Z,1.1
2022-11-10T21:30:00.278Z,1.1
2022-11-10T21:35:00.281Z,1.1
2022-11-10T21:40:00.285Z,1.1
2022-11-10T21:45:00.299Z,1.1
2022-11-10T21:50:00.292Z,1.1
2022-11-10T21:55:00.300Z,1.1
2022-11-10T22:00:00.315Z,1.1
2022-11-10T22:05:00.307Z,1.1
2022-11-10T22:10:00.317Z,1.1
2022-11-10T22:15:00.321Z,1.1
2022-11-10T22:20:00.327Z,1.1
2022-11-10T22:25:00.328Z,1.1
2022-11-10T22:30:00.342Z,1.1
2022-11-10T22:35:00.342Z,1.1
2022-11-10T22:40:00.350Z,1.1
2022-11-10T22:45:00.376Z,1.1
2022-11-10T22:50:00.356Z,1.1
2022-11-10T22:55:00.357Z,1.1
2022-11-10T23:00:00.373Z,1.1
2022-11-10T23:05:00.372Z,1.1
2022-11-10T23:10:00.381Z,1.1
2022-11-10T23:15:00.375Z,1.1
2022-11-10T23:20:00.386Z,1.1
2022-11-10T23:25:00.390Z,1.1
2022-11-10T23:30:00.396Z,1.1
2022-11-10T23:35:00.400Z,1.1
2022-11-10T23:40:00.401Z,1.1
2022-11-10T23:45:00.408Z,1.1
2022-11-10T23:50:00.428Z,1.1
2022-11-10T23:55:00.417Z,1.1
